Time;durP1;ratioP1;P1;durP2;ratioP2;P2;SDS_P1;SDS_P2;PMS_P1;PMS_P2;Temp;Humidity;BMP_temperature;BMP_pressure;BME280_temperature;BME280_humidity;BME280_pressure;Samples;Min_cycle;Max_cycle;Signal;HPM_P1;HPM_P2
2021/08/09 00:00:38;;;;;;;;;;;13.50;99.90;;;;;;5054685;28;19912;-66
2021/08/09 00:03:05;;;;;;;;;;;13.70;99.90;;;;;;5072576;28;19948;-67
2021/08/09 00:05:33;;;;;;;;;;;14.00;99.90;;;;;;5072395;28;20006;-66
2021/08/09 00:07:59;;;;;;;;;;;13.90;99.90;;;;;;5072709;28;19909;-68
2021/08/09 00:10:27;;;;;;;;;;;13.90;99.90;;;;;;5072404;28;19970;-67
2021/08/09 00:12:55;;;;;;;;;;;14.00;99.90;;;;;;5072107;28;19909;-67
2021/08/09 00:15:22;;;;;;;;;;;14.20;99.90;;;;;;5072279;28;19916;-67
2021/08/09 00:17:48;;;;;;;;;;;14.10;99.90;;;;;;5072326;28;20306;-67
2021/08/09 00:20:15;;;;;;;;;;;14.10;99.90;;;;;;5072790;28;20287;-67
2021/08/09 00:22:42;;;;;;;;;;;14.30;99.90;;;;;;5072347;28;19909;-66
2021/08/09 00:25:09;;;;;;;;;;;14.40;99.90;;;;;;5072458;28;19999;-67
2021/08/09 00:27:36;;;;;;;;;;;14.50;99.90;;;;;;5072140;28;19923;-67
2021/08/09 00:30:03;;;;;;;;;;;14.50;99.90;;;;;;5072599;28;19917;-67
2021/08/09 00:32:29;;;;;;;;;;;14.50;99.90;;;;;;5072345;28;19908;-67
2021/08/09 00:34:56;;;;;;;;;;;14.60;99.90;;;;;;5072832;28;19920;-68
2021/08/09 00:37:23;;;;;;;;;;;14.80;99.90;;;;;;5075904;28;19967;-68
2021/08/09 00:39:49;;;;;;;;;;;14.80;99.90;;;;;;5078548;28;19919;-68
2021/08/09 00:42:16;;;;;;;;;;;14.80;99.90;;;;;;5076067;28;19991;-70
2021/08/09 00:44:43;;;;;;;;;;;15.00;99.90;;;;;;5072599;28;19978;-67
2021/08/09 00:47:10;;;;;;;;;;;15.20;99.90;;;;;;5072069;28;19926;-67
2021/08/09 00:49:37;;;;;;;;;;;15.40;99.90;;;;;;5072020;28;19974;-68
2021/08/09 00:52:05;;;;;;;;;;;15.50;99.90;;;;;;5072064;28;19924;-69
2021/08/09 00:54:32;;;;;;;;;;;15.40;99.90;;;;;;5072075;28;20265;-67
2021/08/09 00:56:59;;;;;;;;;;;15.40;99.90;;;;;;5072171;28;19991;-67
2021/08/09 00:59:27;;;;;;;;;;;15.50;99.90;;;;;;5072218;28;19999;-67
2021/08/09 01:01:54;;;;;;;;;;;15.50;99.90;;;;;;5072116;28;19915;-66
2021/08/09 01:04:20;;;;;;;;;;;15.40;99.90;;;;;;5071888;28;19962;-66
2021/08/09 01:06:47;;;;;;;;;;;15.50;99.90;;;;;;5072035;28;19927;-69
2021/08/09 01:09:26;;;;;;;;;;;15.40;99.90;;;;;;5072030;28;20015;-67
2021/08/09 01:12:07;;;;;;;;;;;15.40;99.90;;;;;;5071965;28;19957;-67
2021/08/09 01:14:50;;;;;;;;;;;15.50;99.90;;;;;;5071801;28;19908;-66
2021/08/09 01:17:18;;;;;;;;;;;15.50;99.90;;;;;;5072001;28;19913;-66
2021/08/09 01:20:03;;;;;;;;;;;15.50;99.90;;;;;;5071756;28;20018;-66
2021/08/09 01:22:44;;;;;;;;;;;15.60;99.90;;;;;;5071783;28;19943;-66
2021/08/09 01:25:20;;;;;;;;;;;15.90;99.90;;;;;;5072068;28;19908;-66
2021/08/09 01:27:48;;;;;;;;;;;16.10;99.80;;;;;;5074433;28;19913;-67
2021/08/09 01:30:15;;;;;;;;;;;16.20;99.70;;;;;;5075457;28;19916;-67
2021/08/09 01:32:44;;;;;;;;;;;16.20;99.90;;;;;;5075753;28;19952;-67
2021/08/09 01:35:11;;;;;;;;;;;16.40;99.40;;;;;;5057488;28;19908;-68
2021/08/09 01:37:39;;;;;;;;;;;16.40;99.90;;;;;;5075173;28;19916;-69
2021/08/09 01:40:07;;;;;;;;;;;16.40;99.90;;;;;;5075323;28;19909;-68
2021/08/09 01:42:34;;;;;;;;;;;16.50;99.30;;;;;;5075214;28;19913;-69
2021/08/09 01:45:01;;;;;;;;;;;16.60;99.20;;;;;;5075007;28;19948;-69
2021/08/09 01:47:28;;;;;;;;;;;16.80;98.90;;;;;;5091017;28;19916;-69
2021/08/09 01:49:54;;;;;;;;;;;16.80;98.10;;;;;;5075139;28;19917;-69
2021/08/09 01:52:21;;;;;;;;;;;16.70;98.80;;;;;;5075128;28;19909;-69
2021/08/09 01:54:49;;;;;;;;;;;16.40;98.40;;;;;;5075196;28;20350;-69
2021/08/09 01:57:15;;;;;;;;;;;16.30;98.60;;;;;;5075082;28;20356;-69
2021/08/09 01:59:42;;;;;;;;;;;16.40;98.70;;;;;;5074797;28;20061;-69
2021/08/09 02:02:09;;;;;;;;;;;16.50;98.70;;;;;;5074857;28;19916;-70
2021/08/09 02:04:35;;;;;;;;;;;16.50;99.10;;;;;;5074965;28;19915;-70
2021/08/09 02:07:02;;;;;;;;;;;16.40;98.90;;;;;;5074663;28;19909;-69
2021/08/09 02:09:30;;;;;;;;;;;16.40;98.90;;;;;;5074649;28;20305;-67
2021/08/09 02:12:02;;;;;;;;;;;16.20;98.90;;;;;;5075673;28;19934;-70
2021/08/09 02:14:31;;;;;;;;;;;16.10;99.50;;;;;;5079537;28;19908;-71
2021/08/09 02:17:06;;;;;;;;;;;16.10;99.60;;;;;;5078799;28;19922;-69
2021/08/09 02:19:46;;;;;;;;;;;16.00;99.80;;;;;;5074939;28;19948;-67
2021/08/09 02:22:12;;;;;;;;;;;15.90;99.30;;;;;;5074497;28;20002;-67
2021/08/09 02:24:54;;;;;;;;;;;16.00;99.30;;;;;;5074545;28;19909;-68
2021/08/09 02:27:21;;;;;;;;;;;16.00;99.40;;;;;;5074450;28;20324;-66
2021/08/09 02:29:50;;;;;;;;;;;16.00;99.80;;;;;;5074307;28;19928;-66
2021/08/09 02:32:17;;;;;;;;;;;15.90;99.60;;;;;;5074351;28;19920;-66
2021/08/09 02:34:45;;;;;;;;;;;16.00;99.10;;;;;;5074458;28;20259;-66
2021/08/09 02:37:12;;;;;;;;;;;16.00;99.20;;;;;;5073814;28;20004;-66
2021/08/09 02:39:40;;;;;;;;;;;16.00;99.70;;;;;;5073007;28;20013;-66
2021/08/09 02:42:07;;;;;;;;;;;16.10;99.70;;;;;;5074283;28;20381;-67
2021/08/09 02:44:34;;;;;;;;;;;16.10;99.60;;;;;;5074209;28;19908;-66
2021/08/09 02:47:01;;;;;;;;;;;16.20;99.60;;;;;;5073962;28;19920;-66
2021/08/09 02:49:28;;;;;;;;;;;16.10;99.60;;;;;;5074062;28;19913;-67
2021/08/09 02:51:55;;;;;;;;;;;16.10;99.90;;;;;;5073689;28;19908;-66
2021/08/09 02:54:22;;;;;;;;;;;16.20;99.90;;;;;;5073970;28;20240;-66
2021/08/09 02:56:50;;;;;;;;;;;16.30;99.90;;;;;;5073975;28;19908;-67
2021/08/09 02:59:17;;;;;;;;;;;16.40;99.90;;;;;;5074396;28;20000;-69
2021/08/09 03:01:45;;;;;;;;;;;16.50;99.90;;;;;;5074454;28;19913;-67
2021/08/09 03:04:14;;;;;;;;;;;16.60;99.50;;;;;;5074193;28;19954;-68
2021/08/09 03:06:42;;;;;;;;;;;16.60;99.90;;;;;;5073979;28;19915;-68
2021/08/09 03:09:09;;;;;;;;;;;16.70;99.60;;;;;;5073700;28;19908;-67
2021/08/09 03:11:36;;;;;;;;;;;16.70;99.90;;;;;;5073793;28;19913;-66
2021/08/09 03:14:03;;;;;;;;;;;16.60;99.50;;;;;;5074076;28;19908;-69
2021/08/09 03:16:30;;;;;;;;;;;16.50;99.90;;;;;;5074020;28;19916;-69
2021/08/09 03:18:56;;;;;;;;;;;16.40;99.70;;;;;;5073439;28;19909;-67
2021/08/09 03:21:23;;;;;;;;;;;16.40;99.90;;;;;;5073832;28;19908;-67
2021/08/09 03:23:53;;;;;;;;;;;16.30;99.90;;;;;;5073173;28;20031;-69
2021/08/09 03:26:20;;;;;;;;;;;16.40;99.90;;;;;;5073956;28;19961;-67
2021/08/09 03:28:47;;;;;;;;;;;16.50;99.90;;;;;;5073644;28;20274;-67
2021/08/09 03:31:14;;;;;;;;;;;16.50;99.90;;;;;;5073575;28;19956;-66
2021/08/09 03:33:41;;;;;;;;;;;16.70;99.90;;;;;;5073515;28;19909;-66
2021/08/09 03:36:08;;;;;;;;;;;16.80;99.90;;;;;;5073856;28;19912;-66
2021/08/09 03:38:35;;;;;;;;;;;16.70;99.90;;;;;;5073697;28;19991;-68
2021/08/09 03:41:02;;;;;;;;;;;16.70;99.80;;;;;;5073164;28;19909;-68
2021/08/09 03:43:29;;;;;;;;;;;16.70;99.90;;;;;;5073208;28;19955;-67
2021/08/09 03:45:56;;;;;;;;;;;16.70;99.90;;;;;;5055112;28;19921;-67
2021/08/09 03:48:23;;;;;;;;;;;16.70;99.90;;;;;;5073210;28;19931;-69
2021/08/09 03:50:50;;;;;;;;;;;16.60;99.90;;;;;;5073936;28;19916;-69
2021/08/09 03:53:17;;;;;;;;;;;16.60;99.90;;;;;;5057509;28;19909;-67
2021/08/09 03:55:43;;;;;;;;;;;16.40;99.90;;;;;;5075708;28;19908;-67
2021/08/09 03:58:10;;;;;;;;;;;16.40;99.90;;;;;;5073935;28;19908;-69
2021/08/09 04:00:38;;;;;;;;;;;16.30;99.90;;;;;;5075756;28;19920;-66
2021/08/09 04:03:05;;;;;;;;;;;16.30;99.90;;;;;;5075650;28;19909;-67
2021/08/09 04:05:32;;;;;;;;;;;16.20;99.90;;;;;;5074618;28;19916;-67
2021/08/09 04:07:59;;;;;;;;;;;16.20;99.90;;;;;;5074478;28;19971;-66
2021/08/09 04:10:26;;;;;;;;;;;16.30;99.90;;;;;;5074164;28;20325;-67
2021/08/09 04:12:53;;;;;;;;;;;16.30;99.90;;;;;;5056589;28;19959;-68
2021/08/09 04:15:20;;;;;;;;;;;16.20;99.90;;;;;;5074563;28;20367;-66
2021/08/09 04:17:47;;;;;;;;;;;16.20;99.90;;;;;;5055757;28;19924;-66
2021/08/09 04:20:14;;;;;;;;;;;16.10;99.90;;;;;;5074775;28;19912;-66
2021/08/09 04:22:41;;;;;;;;;;;16.20;99.90;;;;;;5075800;28;19908;-67
2021/08/09 04:25:08;;;;;;;;;;;16.10;99.90;;;;;;5072850;28;20268;-65
2021/08/09 04:27:35;;;;;;;;;;;16.10;99.90;;;;;;5054430;28;19909;-66
2021/08/09 04:30:01;;;;;;;;;;;16.20;99.90;;;;;;5072185;28;19920;-67
2021/08/09 04:32:39;;;;;;;;;;;16.30;99.90;;;;;;5072201;28;19908;-66
2021/08/09 04:35:10;;;;;;;;;;;16.40;99.90;;;;;;5072460;28;20431;-67
2021/08/09 04:37:37;;;;;;;;;;;16.50;99.90;;;;;;5072232;28;20359;-66
2021/08/09 04:40:05;;;;;;;;;;;16.50;99.90;;;;;;5072427;28;20320;-68
2021/08/09 04:42:32;;;;;;;;;;;16.60;99.90;;;;;;5072320;28;19934;-68
2021/08/09 04:44:58;;;;;;;;;;;16.50;99.90;;;;;;5072153;28;19908;-66
2021/08/09 04:47:26;;;;;;;;;;;16.50;99.90;;;;;;5072285;28;20371;-66
2021/08/09 04:49:53;;;;;;;;;;;16.50;99.90;;;;;;5087031;28;19912;-67
2021/08/09 04:52:20;;;;;;;;;;;16.50;99.90;;;;;;5072579;28;19909;-66
2021/08/09 04:54:46;;;;;;;;;;;16.50;99.90;;;;;;5072021;28;19908;-67
2021/08/09 04:57:13;;;;;;;;;;;16.50;99.90;;;;;;5072143;28;19938;-67
2021/08/09 04:59:40;;;;;;;;;;;16.50;99.90;;;;;;5072083;28;19951;-68
2021/08/09 05:02:06;;;;;;;;;;;16.50;99.90;;;;;;5074015;28;19953;-67
2021/08/09 05:04:33;;;;;;;;;;;16.40;99.90;;;;;;5075915;28;19909;-68
2021/08/09 05:07:01;;;;;;;;;;;16.50;99.90;;;;;;5076174;28;19908;-67
2021/08/09 05:09:28;;;;;;;;;;;16.50;99.90;;;;;;5075552;28;19923;-67
2021/08/09 05:11:55;;;;;;;;;;;16.50;99.90;;;;;;5091878;28;19951;-67
2021/08/09 05:14:21;;;;;;;;;;;16.50;99.90;;;;;;5076264;28;19908;-67
2021/08/09 05:16:48;;;;;;;;;;;16.40;99.90;;;;;;5075888;28;19909;-69
2021/08/09 05:19:15;;;;;;;;;;;16.50;99.90;;;;;;5057605;28;19916;-67
2021/08/09 05:21:41;;;;;;;;;;;16.40;99.90;;;;;;5075639;28;20351;-69
2021/08/09 05:24:08;;;;;;;;;;;16.40;99.90;;;;;;5076051;28;19908;-68
2021/08/09 05:26:35;;;;;;;;;;;16.40;99.90;;;;;;5076110;28;19948;-69
2021/08/09 05:29:02;;;;;;;;;;;16.40;99.90;;;;;;5078461;28;19908;-69
2021/08/09 05:31:28;;;;;;;;;;;16.40;99.90;;;;;;5080860;28;19919;-69
2021/08/09 05:33:57;;;;;;;;;;;16.30;99.90;;;;;;5079671;28;19988;-68
2021/08/09 05:36:24;;;;;;;;;;;16.30;99.90;;;;;;5075735;28;19915;-67
2021/08/09 05:38:51;;;;;;;;;;;16.40;99.90;;;;;;5075513;28;19923;-66
2021/08/09 05:41:17;;;;;;;;;;;16.30;99.90;;;;;;5075446;28;20007;-65
2021/08/09 05:43:44;;;;;;;;;;;16.30;99.90;;;;;;5075179;28;19908;-65
2021/08/09 05:46:11;;;;;;;;;;;16.30;99.90;;;;;;5075255;28;19920;-66
2021/08/09 05:48:38;;;;;;;;;;;16.20;99.90;;;;;;5075099;28;19912;-65
2021/08/09 05:51:04;;;;;;;;;;;16.20;99.90;;;;;;5074998;28;19926;-66
2021/08/09 05:53:32;;;;;;;;;;;16.20;99.90;;;;;;5075201;28;19908;-66
2021/08/09 05:55:58;;;;;;;;;;;16.10;99.90;;;;;;5075281;28;20374;-68
2021/08/09 05:58:25;;;;;;;;;;;16.10;99.90;;;;;;5075038;28;20321;-67
2021/08/09 06:00:52;;;;;;;;;;;16.10;99.90;;;;;;5075114;28;19936;-66
2021/08/09 06:03:22;;;;;;;;;;;16.00;99.90;;;;;;5075095;28;20359;-65
2021/08/09 06:05:49;;;;;;;;;;;16.00;99.90;;;;;;5074290;28;20412;-66
2021/08/09 06:08:16;;;;;;;;;;;15.90;99.90;;;;;;5074862;28;19931;-65
2021/08/09 06:10:42;;;;;;;;;;;15.90;99.90;;;;;;5074876;28;19916;-65
2021/08/09 06:13:09;;;;;;;;;;;15.90;99.90;;;;;;5074466;28;19908;-66
2021/08/09 06:15:35;;;;;;;;;;;15.90;99.90;;;;;;5074785;28;19908;-66
2021/08/09 06:18:02;;;;;;;;;;;15.90;99.90;;;;;;5074749;28;19908;-66
2021/08/09 06:20:32;;;;;;;;;;;15.80;99.90;;;;;;5074631;28;19954;-66
2021/08/09 06:22:59;;;;;;;;;;;15.80;99.90;;;;;;5074617;28;19930;-65
2021/08/09 06:25:28;;;;;;;;;;;15.80;99.90;;;;;;5074600;28;19915;-66
2021/08/09 06:27:54;;;;;;;;;;;15.80;99.90;;;;;;5074466;28;20405;-66
2021/08/09 06:30:21;;;;;;;;;;;15.70;99.90;;;;;;5074659;28;19916;-67
2021/08/09 06:32:48;;;;;;;;;;;15.70;99.90;;;;;;5074448;28;20279;-66
2021/08/09 06:35:15;;;;;;;;;;;15.70;99.90;;;;;;5074272;28;19909;-66
2021/08/09 06:37:41;;;;;;;;;;;15.60;99.90;;;;;;5074238;28;20335;-65
2021/08/09 06:40:09;;;;;;;;;;;15.60;99.90;;;;;;5074370;28;19909;-66
2021/08/09 06:42:35;;;;;;;;;;;15.50;99.90;;;;;;5074070;28;19912;-67
2021/08/09 06:45:02;;;;;;;;;;;15.60;99.90;;;;;;5072672;28;20405;-65
2021/08/09 06:47:32;;;;;;;;;;;15.50;99.90;;;;;;5072728;28;20030;-65
2021/08/09 06:49:59;;;;;;;;;;;15.50;99.90;;;;;;5089760;28;19925;-66
2021/08/09 06:52:28;;;;;;;;;;;15.50;99.90;;;;;;5071505;28;19912;-66
2021/08/09 06:54:59;;;;;;;;;;;15.50;99.90;;;;;;5072330;28;19935;-65
2021/08/09 06:57:25;;;;;;;;;;;15.40;99.90;;;;;;5072144;28;19912;-69
2021/08/09 06:59:54;;;;;;;;;;;15.40;99.90;;;;;;5071788;28;19912;-68
2021/08/09 07:02:20;;;;;;;;;;;15.30;99.90;;;;;;5071059;28;19957;-67
2021/08/09 07:04:47;;;;;;;;;;;15.40;99.90;;;;;;5072014;28;19938;-66
2021/08/09 07:07:14;;;;;;;;;;;15.30;99.90;;;;;;5077003;28;19915;-66
2021/08/09 07:09:40;;;;;;;;;;;15.30;99.90;;;;;;5077646;28;20026;-68
2021/08/09 07:12:09;;;;;;;;;;;15.20;99.90;;;;;;5080039;28;19916;-66
2021/08/09 07:14:36;;;;;;;;;;;15.20;99.90;;;;;;5071997;28;19908;-66
2021/08/09 07:17:03;;;;;;;;;;;15.20;99.90;;;;;;5071408;28;20633;-65
2021/08/09 07:19:30;;;;;;;;;;;15.20;99.90;;;;;;5071328;28;19931;-66
2021/08/09 07:21:59;;;;;;;;;;;15.10;99.90;;;;;;5071329;28;19916;-65
2021/08/09 07:24:26;;;;;;;;;;;15.10;99.90;;;;;;5071027;28;19965;-68
2021/08/09 07:26:52;;;;;;;;;;;15.10;99.90;;;;;;5071440;28;20375;-65
2021/08/09 07:29:19;;;;;;;;;;;15.00;99.90;;;;;;5071365;28;19955;-66
2021/08/09 07:31:46;;;;;;;;;;;15.00;99.90;;;;;;5067699;28;20041;-66
2021/08/09 07:34:12;;;;;;;;;;;15.00;99.90;;;;;;5071463;28;19908;-66
2021/08/09 07:36:41;;;;;;;;;;;15.00;99.90;;;;;;5071126;28;19977;-67
2021/08/09 07:39:07;;;;;;;;;;;15.00;99.90;;;;;;5070998;28;19924;-65
2021/08/09 07:41:34;;;;;;;;;;;15.00;99.90;;;;;;5070863;28;19971;-66
2021/08/09 07:44:01;;;;;;;;;;;15.00;99.90;;;;;;5070929;28;20361;-66
2021/08/09 07:46:30;;;;;;;;;;;14.90;99.90;;;;;;5070651;28;19928;-65
2021/08/09 07:48:57;;;;;;;;;;;14.90;99.90;;;;;;5070645;28;19913;-65
2021/08/09 07:51:24;;;;;;;;;;;14.90;99.90;;;;;;5070799;28;19928;-66
2021/08/09 07:53:51;;;;;;;;;;;14.90;99.90;;;;;;5070597;28;19916;-67
2021/08/09 07:56:18;;;;;;;;;;;14.90;99.90;;;;;;5070198;28;20379;-66
2021/08/09 07:58:44;;;;;;;;;;;14.80;99.90;;;;;;5070361;28;19912;-65
2021/08/09 08:01:11;;;;;;;;;;;14.90;99.90;;;;;;5070537;28;20446;-66
2021/08/09 08:03:38;;;;;;;;;;;14.80;99.90;;;;;;5070241;28;19917;-68
2021/08/09 08:06:04;;;;;;;;;;;14.80;99.90;;;;;;5070726;28;19908;-67
2021/08/09 08:08:31;;;;;;;;;;;14.80;99.90;;;;;;5070784;28;19912;-68
2021/08/09 08:10:59;;;;;;;;;;;14.80;99.90;;;;;;5070321;28;19943;-66
2021/08/09 08:13:26;;;;;;;;;;;14.70;99.90;;;;;;5070300;28;19995;-67
2021/08/09 08:15:53;;;;;;;;;;;14.70;99.90;;;;;;5070396;28;19919;-66
2021/08/09 08:18:20;;;;;;;;;;;14.70;99.90;;;;;;5070426;28;19920;-68
2021/08/09 08:20:48;;;;;;;;;;;14.70;99.90;;;;;;5070451;28;19908;-66
2021/08/09 08:23:15;;;;;;;;;;;14.60;99.90;;;;;;5070110;28;19982;-66
2021/08/09 08:25:41;;;;;;;;;;;14.60;99.90;;;;;;5070435;28;19952;-67
2021/08/09 08:28:08;;;;;;;;;;;14.60;99.90;;;;;;5070586;28;19995;-65
2021/08/09 08:30:35;;;;;;;;;;;14.60;99.90;;;;;;5070509;28;19962;-67
2021/08/09 08:33:01;;;;;;;;;;;14.60;99.90;;;;;;5070325;28;19912;-66
2021/08/09 08:35:28;;;;;;;;;;;14.60;99.90;;;;;;5069299;28;19916;-68
2021/08/09 08:37:55;;;;;;;;;;;14.60;99.90;;;;;;5070172;28;19912;-68
2021/08/09 08:40:22;;;;;;;;;;;14.60;99.90;;;;;;5070192;28;19991;-68
2021/08/09 08:42:49;;;;;;;;;;;14.60;99.90;;;;;;5071684;28;19908;-69
2021/08/09 08:45:19;;;;;;;;;;;14.60;99.90;;;;;;5072569;28;19948;-68
2021/08/09 08:47:47;;;;;;;;;;;14.50;99.90;;;;;;5073001;28;19955;-69
2021/08/09 08:50:16;;;;;;;;;;;14.60;99.90;;;;;;5069505;28;19916;-67
2021/08/09 08:52:47;;;;;;;;;;;14.50;99.90;;;;;;5070040;28;19995;-65
2021/08/09 08:55:18;;;;;;;;;;;14.50;99.90;;;;;;5083715;28;19920;-66
2021/08/09 08:57:46;;;;;;;;;;;14.50;99.90;;;;;;5069856;28;19908;-66
2021/08/09 09:00:14;;;;;;;;;;;14.50;99.90;;;;;;5070217;28;19920;-66
2021/08/09 09:02:40;;;;;;;;;;;14.50;99.90;;;;;;5069979;28;20280;-68
2021/08/09 09:05:23;;;;;;;;;;;14.40;99.90;;;;;;5070074;28;19940;-66
2021/08/09 09:07:54;;;;;;;;;;;14.40;99.90;;;;;;5071760;28;20025;-66
2021/08/09 09:10:22;;;;;;;;;;;14.40;99.90;;;;;;5071381;28;19917;-66
2021/08/09 09:13:08;;;;;;;;;;;14.40;99.90;;;;;;5072297;28;19908;-65
2021/08/09 09:15:53;;;;;;;;;;;14.40;99.90;;;;;;5070575;28;19909;-65
2021/08/09 09:18:20;;;;;;;;;;;14.40;99.90;;;;;;5071943;28;19908;-66
2021/08/09 09:20:46;;;;;;;;;;;14.30;99.90;;;;;;5071542;28;19909;-65
2021/08/09 09:23:13;;;;;;;;;;;14.30;99.90;;;;;;5071791;28;20016;-66
2021/08/09 09:25:41;;;;;;;;;;;14.30;99.90;;;;;;5071116;28;19908;-66
2021/08/09 09:28:26;;;;;;;;;;;14.20;99.90;;;;;;5087484;28;20291;-65
2021/08/09 09:30:54;;;;;;;;;;;14.20;99.90;;;;;;5071831;28;20011;-67
2021/08/09 09:33:21;;;;;;;;;;;14.30;99.90;;;;;;5071512;28;20003;-65
2021/08/09 09:35:51;;;;;;;;;;;14.20;99.90;;;;;;5071719;28;19913;-66
2021/08/09 09:38:18;;;;;;;;;;;14.20;99.90;;;;;;5071597;28;19919;-67
2021/08/09 09:40:45;;;;;;;;;;;14.20;99.90;;;;;;5071040;28;20004;-67
2021/08/09 09:43:16;;;;;;;;;;;14.20;99.90;;;;;;5071797;28;20004;-67
2021/08/09 09:45:55;;;;;;;;;;;14.20;99.90;;;;;;5071373;28;19917;-67
2021/08/09 09:48:40;;;;;;;;;;;14.20;99.90;;;;;;5073491;28;19912;-67
2021/08/09 09:51:14;;;;;;;;;;;14.10;99.90;;;;;;5075135;28;19916;-66
2021/08/09 09:53:41;;;;;;;;;;;14.10;99.90;;;;;;5075098;28;19917;-65
2021/08/09 09:56:08;;;;;;;;;;;14.10;99.90;;;;;;5074701;28;19909;-66
2021/08/09 09:58:39;;;;;;;;;;;14.20;99.90;;;;;;5074663;28;20332;-67
2021/08/09 10:01:06;;;;;;;;;;;14.20;99.90;;;;;;5075199;28;19912;-67
2021/08/09 10:03:34;;;;;;;;;;;14.20;99.90;;;;;;5074764;28;19916;-66
2021/08/09 10:06:01;;;;;;;;;;;14.20;99.90;;;;;;5074923;28;19909;-67
2021/08/09 10:08:33;;;;;;;;;;;14.20;99.90;;;;;;5074915;28;19916;-67
2021/08/09 10:11:02;;;;;;;;;;;14.20;99.90;;;;;;5074816;28;20010;-68
2021/08/09 10:13:30;;;;;;;;;;;14.20;99.90;;;;;;5074913;28;19918;-68
2021/08/09 10:16:00;;;;;;;;;;;14.20;99.90;;;;;;5074876;28;19939;-68
2021/08/09 10:18:29;;;;;;;;;;;14.10;99.90;;;;;;5075700;28;19912;-67
2021/08/09 10:20:56;;;;;;;;;;;14.10;99.90;;;;;;5076228;28;19908;-67
2021/08/09 10:23:40;;;;;;;;;;;14.10;99.90;;;;;;5076982;28;20003;-66
2021/08/09 10:26:07;;;;;;;;;;;14.10;99.90;;;;;;5074587;28;19908;-66
2021/08/09 10:28:55;;;;;;;;;;;14.20;99.90;;;;;;5074455;28;20379;-65
2021/08/09 10:31:22;;;;;;;;;;;14.10;99.90;;;;;;5074553;28;20263;-65
2021/08/09 10:33:52;;;;;;;;;;;14.10;99.90;;;;;;5074370;28;19985;-65
2021/08/09 10:36:22;;;;;;;;;;;14.20;99.90;;;;;;5074553;28;19913;-66
2021/08/09 10:39:00;;;;;;;;;;;14.20;99.90;;;;;;5074010;28;19915;-65
2021/08/09 10:41:33;;;;;;;;;;;14.20;99.90;;;;;;5074232;28;19913;-65
2021/08/09 10:44:03;;;;;;;;;;;14.20;99.90;;;;;;5074112;28;19908;-66
2021/08/09 10:46:36;;;;;;;;;;;14.20;99.90;;;;;;5074150;28;19973;-65
2021/08/09 10:49:04;;;;;;;;;;;14.20;99.90;;;;;;5074110;28;19914;-65
2021/08/09 10:51:48;;;;;;;;;;;14.10;99.90;;;;;;5073643;28;20050;-66
2021/08/09 10:54:31;;;;;;;;;;;14.10;99.90;;;;;;5072038;28;19912;-66
2021/08/09 10:56:58;;;;;;;;;;;14.00;99.90;;;;;;5071952;28;19916;-67
2021/08/09 10:59:41;;;;;;;;;;;14.00;99.90;;;;;;5071032;28;19930;-67
2021/08/09 11:02:19;;;;;;;;;;;14.00;99.90;;;;;;5071699;28;20295;-66
2021/08/09 11:05:04;;;;;;;;;;;14.00;99.90;;;;;;5071929;28;19908;-66
2021/08/09 11:07:30;;;;;;;;;;;14.00;99.90;;;;;;5071055;28;20278;-66
2021/08/09 11:09:57;;;;;;;;;;;14.00;99.90;;;;;;5071929;28;19924;-67
2021/08/09 11:12:25;;;;;;;;;;;14.00;99.90;;;;;;5071960;28;19912;-68
2021/08/09 11:17:29;;;;;;;;;;;13.90;99.90;;;;;;5071502;28;19916;-66
2021/08/09 11:20:12;;;;;;;;;;;13.90;99.90;;;;;;5071211;28;19947;-68
2021/08/09 11:22:47;;;;;;;;;;;13.90;99.90;;;;;;5071011;28;19966;-66
2021/08/09 11:25:28;;;;;;;;;;;13.90;99.90;;;;;;5071329;28;19996;-65
2021/08/09 11:28:10;;;;;;;;;;;13.90;99.90;;;;;;5071273;28;19908;-65
2021/08/09 11:30:37;;;;;;;;;;;13.90;99.90;;;;;;5071224;28;20362;-68
2021/08/09 11:33:04;;;;;;;;;;;13.90;99.90;;;;;;5071030;28;19919;-67
2021/08/09 11:35:30;;;;;;;;;;;13.90;99.90;;;;;;5071157;28;19935;-66
2021/08/09 11:38:00;;;;;;;;;;;13.90;99.90;;;;;;5070726;28;20666;-66
2021/08/09 11:40:36;;;;;;;;;;;13.80;99.90;;;;;;5070862;28;20003;-67
2021/08/09 11:43:03;;;;;;;;;;;13.80;99.90;;;;;;5071245;28;19955;-67
2021/08/09 11:45:30;;;;;;;;;;;13.80;99.90;;;;;;5070415;28;20409;-66
2021/08/09 11:47:56;;;;;;;;;;;13.80;99.90;;;;;;5070852;28;19913;-65
2021/08/09 11:50:23;;;;;;;;;;;13.80;99.90;;;;;;5070948;28;19966;-66
2021/08/09 11:52:53;;;;;;;;;;;13.70;99.90;;;;;;5070404;28;19915;-66
2021/08/09 11:55:23;;;;;;;;;;;13.80;99.90;;;;;;5071176;28;19912;-66
2021/08/09 11:57:49;;;;;;;;;;;13.70;99.90;;;;;;5071566;28;19959;-67
2021/08/09 12:00:17;;;;;;;;;;;13.80;99.90;;;;;;5073029;28;19999;-67
2021/08/09 12:03:02;;;;;;;;;;;13.80;99.90;;;;;;5087478;28;19916;-66
2021/08/09 12:05:28;;;;;;;;;;;13.80;99.90;;;;;;5070690;28;19919;-66
2021/08/09 12:07:59;;;;;;;;;;;13.70;99.90;;;;;;5052286;28;20305;-66
2021/08/09 12:10:26;;;;;;;;;;;13.70;99.90;;;;;;5069922;28;19966;-65
2021/08/09 12:12:52;;;;;;;;;;;13.70;99.90;;;;;;5070639;28;19928;-67
2021/08/09 12:15:19;;;;;;;;;;;13.70;99.90;;;;;;5070588;28;19916;-67
2021/08/09 12:18:06;;;;;;;;;;;13.70;99.90;;;;;;5069826;28;19931;-67
2021/08/09 12:20:33;;;;;;;;;;;13.60;99.90;;;;;;5070410;28;19912;-66
2021/08/09 12:23:00;;;;;;;;;;;13.60;99.90;;;;;;5070354;28;19943;-66
2021/08/09 12:25:37;;;;;;;;;;;13.50;99.90;;;;;;5070310;28;19960;-66
2021/08/09 12:28:04;;;;;;;;;;;13.50;99.90;;;;;;5070550;28;20385;-66
2021/08/09 12:30:31;;;;;;;;;;;13.50;99.90;;;;;;5070385;28;19920;-69
2021/08/09 12:33:01;;;;;;;;;;;13.50;99.90;;;;;;5070449;28;19912;-66
2021/08/09 12:35:31;;;;;;;;;;;13.40;99.90;;;;;;5070439;28;19912;-66
2021/08/09 12:37:58;;;;;;;;;;;13.40;99.90;;;;;;5070102;28;20070;-66
2021/08/09 12:40:25;;;;;;;;;;;13.40;99.90;;;;;;5070329;28;19908;-66
2021/08/09 12:43:02;;;;;;;;;;;13.40;99.90;;;;;;5070031;28;20417;-67
2021/08/09 12:45:32;;;;;;;;;;;13.40;99.90;;;;;;5069740;28;20011;-68
2021/08/09 12:47:59;;;;;;;;;;;13.30;99.90;;;;;;5052008;28;20390;-67
2021/08/09 12:50:25;;;;;;;;;;;13.30;99.90;;;;;;5069834;28;20483;-68
2021/08/09 12:52:52;;;;;;;;;;;13.30;99.90;;;;;;5070347;28;19908;-69
2021/08/09 12:55:18;;;;;;;;;;;13.30;99.90;;;;;;5069962;28;19920;-68
2021/08/09 12:57:51;;;;;;;;;;;13.30;99.90;;;;;;5069897;28;19988;-66
2021/08/09 13:00:18;;;;;;;;;;;13.30;99.90;;;;;;5070179;28;19985;-66
2021/08/09 13:02:44;;;;;;;;;;;13.30;99.90;;;;;;5069772;28;19918;-69
2021/08/09 13:05:11;;;;;;;;;;;13.30;99.90;;;;;;5070234;28;20059;-67
2021/08/09 13:07:38;;;;;;;;;;;13.20;99.90;;;;;;5070069;28;19917;-67
2021/08/09 13:10:04;;;;;;;;;;;13.30;99.90;;;;;;5069809;28;20017;-67
2021/08/09 13:12:32;;;;;;;;;;;13.30;99.90;;;;;;5070267;28;20359;-67
2021/08/09 13:14:59;;;;;;;;;;;13.20;99.90;;;;;;5070136;28;19909;-67
2021/08/09 13:17:25;;;;;;;;;;;13.20;99.90;;;;;;5069638;28;19974;-68
2021/08/09 13:19:53;;;;;;;;;;;13.20;99.90;;;;;;5069698;28;19944;-68
2021/08/09 13:22:20;;;;;;;;;;;13.20;99.90;;;;;;5070492;28;19908;-67
2021/08/09 13:24:47;;;;;;;;;;;13.30;99.90;;;;;;5074230;28;19912;-69
2021/08/09 13:27:13;;;;;;;;;;;13.20;99.90;;;;;;5073899;28;20372;-68
2021/08/09 13:29:40;;;;;;;;;;;13.20;99.90;;;;;;5073363;28;19912;-69
2021/08/09 13:32:07;;;;;;;;;;;13.20;99.90;;;;;;5074185;28;19919;-69
2021/08/09 13:34:33;;;;;;;;;;;13.20;99.90;;;;;;5073530;28;19985;-68
2021/08/09 13:37:00;;;;;;;;;;;13.10;99.90;;;;;;5074587;28;19913;-69
2021/08/09 13:39:28;;;;;;;;;;;13.00;99.90;;;;;;5076292;28;19920;-68
2021/08/09 13:41:54;;;;;;;;;;;12.90;99.90;;;;;;5073425;28;19913;-67
2021/08/09 13:44:21;;;;;;;;;;;12.80;99.90;;;;;;5073340;28;19918;-66
2021/08/09 13:46:48;;;;;;;;;;;12.80;99.90;;;;;;5073268;28;19971;-66
2021/08/09 13:49:14;;;;;;;;;;;12.90;99.90;;;;;;5073243;28;20000;-66
2021/08/09 13:51:41;;;;;;;;;;;13.00;99.90;;;;;;5073016;28;20007;-67
2021/08/09 13:54:08;;;;;;;;;;;13.00;99.90;;;;;;5073278;28;19959;-66
2021/08/09 13:56:36;;;;;;;;;;;13.10;99.90;;;;;;5072924;28;19953;-66
2021/08/09 13:59:03;;;;;;;;;;;13.20;99.90;;;;;;5055058;28;20018;-69
2021/08/09 14:01:29;;;;;;;;;;;13.20;99.90;;;;;;5072984;28;19908;-66
2021/08/09 14:03:56;;;;;;;;;;;13.30;99.90;;;;;;5073169;28;19908;-66
2021/08/09 14:06:23;;;;;;;;;;;13.30;99.90;;;;;;5073029;28;19908;-66
2021/08/09 14:08:49;;;;;;;;;;;13.30;99.90;;;;;;5072577;28;19916;-66
2021/08/09 14:11:18;;;;;;;;;;;13.30;99.90;;;;;;5072844;28;19927;-66
2021/08/09 14:13:45;;;;;;;;;;;13.30;99.90;;;;;;5072627;28;19916;-67
2021/08/09 14:16:12;;;;;;;;;;;13.20;99.90;;;;;;5072897;28;19940;-66
2021/08/09 14:18:39;;;;;;;;;;;13.20;99.90;;;;;;5072677;28;19908;-67
2021/08/09 14:21:05;;;;;;;;;;;13.30;99.90;;;;;;5072381;28;19914;-67
2021/08/09 14:23:32;;;;;;;;;;;13.30;99.90;;;;;;5072537;28;20359;-66
2021/08/09 14:25:58;;;;;;;;;;;13.30;99.90;;;;;;5072854;28;20282;-66